地図

経路データ

SID SEASON NUMBER BASIN SUBBASIN NAME ISO_TIME NATURE LAT LON WMO_WIND WMO_PRES WMO_AGENCY TRACK_TYPE DIST2LAND LANDFALL IFLAG USA_AGENCY USA_ATCF_ID USA_LAT USA_LON USA_RECORD USA_STATUS USA_WIND USA_PRES USA_SSHS USA_R34_NE USA_R34_SE USA_R34_SW USA_R34_NW USA_R50_NE USA_R50_SE USA_R50_SW USA_R50_NW USA_R64_NE USA_R64_SE USA_R64_SW USA_R64_NW USA_POCI USA_ROCI USA_RMW USA_EYE TOKYO_LAT TOKYO_LON TOKYO_GRADE TOKYO_WIND TOKYO_PRES TOKYO_R50_DIR TOKYO_R50_LONG TOKYO_R50_SHORT TOKYO_R30_DIR TOKYO_R30_LONG TOKYO_R30_SHORT TOKYO_LAND CMA_LAT CMA_LON CMA_CAT CMA_WIND CMA_PRES HKO_LAT HKO_LON HKO_CAT HKO_WIND HKO_PRES NEWDELHI_LAT NEWDELHI_LON NEWDELHI_GRADE NEWDELHI_WIND NEWDELHI_PRES NEWDELHI_CI NEWDELHI_DP NEWDELHI_POCI REUNION_LAT REUNION_LON REUNION_TYPE REUNION_WIND REUNION_PRES REUNION_TNUM REUNION_CI REUNION_RMW REUNION_R34_NE REUNION_R34_SE REUNION_R34_SW REUNION_R34_NW REUNION_R50_NE REUNION_R50_SE REUNION_R50_SW REUNION_R50_NW REUNION_R64_NE REUNION_R64_SE REUNION_R64_SW REUNION_R64_NW BOM_LAT BOM_LON BOM_TYPE BOM_WIND BOM_PRES BOM_TNUM BOM_CI BOM_RMW BOM_R34_NE BOM_R34_SE BOM_R34_SW BOM_R34_NW BOM_R50_NE BOM_R50_SE BOM_R50_SW BOM_R50_NW BOM_R64_NE BOM_R64_SE BOM_R64_SW BOM_R64_NW BOM_ROCI BOM_POCI BOM_EYE BOM_POS_METHOD BOM_PRES_METHOD NADI_LAT NADI_LON NADI_CAT NADI_WIND NADI_PRES WELLINGTON_LAT WELLINGTON_LON WELLINGTON_WIND WELLINGTON_PRES DS824_LAT DS824_LON DS824_STAGE DS824_WIND DS824_PRES TD9636_LAT TD9636_LON TD9636_STAGE TD9636_WIND TD9636_PRES TD9635_LAT TD9635_LON TD9635_WIND TD9635_PRES TD9635_ROCI NEUMANN_LAT NEUMANN_LON NEUMANN_CLASS NEUMANN_WIND NEUMANN_PRES MLC_LAT MLC_LON MLC_CLASS MLC_WIND MLC_PRES USA_GUST BOM_GUST BOM_GUST_PER REUNION_GUST REUNION_GUST_PER USA_SEAHGT USA_SEARAD_NE USA_SEARAD_SE USA_SEARAD_SW USA_SEARAD_NW STORM_SPEED STORM_DIR
1957313N11068 1957 80 NI AS NOT_NAMED 1957-11-08 18:00:00 TS 10.7000 68.4000 main 735 735 O________O____ jtwc_io IO061957 10.7000 68.4000 -1 10.7000 68.4000 TC 2 232
1957313N11068 1957 80 NI AS NOT_NAMED 1957-11-08 21:00:00 TS 10.6350 68.3200 main 749 749 P________P____ IO061957 10.6350 68.3200 -1 10.6350 68.3200 TC 2 270
1957313N11068 1957 80 NI AS NOT_NAMED 1957-11-09 00:00:00 TS 10.7000 68.2000 main 756 752 O________O____ jtwc_io IO061957 10.7000 68.2000 -1 10.7000 68.2000 TC 25 5 318
1957313N11068 1957 80 NI AS NOT_NAMED 1957-11-09 03:00:00 TS 10.9844 68.0021 main 767 767 P________PO___ IO061957 10.9824 68.0024 -1 10.9824 68.0024 TC 25 11.0000 68.0000 1 9 323
1957313N11068 1957 80 NI AS NOT_NAMED 1957-11-09 06:00:00 TS 11.4008 67.6710 main 788 788 O________OP___ jtwc_io IO061957 11.4000 67.7000 -1 11.4000 67.7000 TC 25 11.4040 67.5549 1 12 317
1957313N11068 1957 80 NI AS NOT_NAMED 1957-11-09 09:00:00 TS 11.8218 67.1977 main 813 813 P________PP___ IO061957 11.8203 67.2129 -1 11.8203 67.2129 TC 25 11.8259 67.1572 1 12 317
1957313N11068 1957 80 NI AS NOT_NAMED 1957-11-09 12:00:00 TS 12.2950 66.8186 main 828 817 O________OP___ jtwc_io IO061957 12.3000 66.8000 -1 12.3000 66.8000 TC 25 12.2849 66.8559 1 11 334
1957313N11068 1957 80 NI AS NOT_NAMED 1957-11-09 15:00:00 TS 12.8182 66.7016 main 817 779 P________PO___ IO061957 12.8274 66.7024 -1 12.8274 66.7024 TC 25 12.8000 66.7000 1 11 358
1957313N11068 1957 80 NI AS NOT_NAMED 1957-11-09 18:00:00 TS 13.3921 66.7739 main 779 741 O________OP___ jtwc_io IO061957 13.4000 66.8000 -1 13.4000 66.8000 TC 25 13.3763 66.7216 1 12 11
1957313N11068 1957 80 NI AS NOT_NAMED 1957-11-09 21:00:00 TS 14.0224 66.9408 main 741 691 P________PP___ IO061957 14.0525 66.9697 -1 14.0525 66.9697 TC 30 13.9623 66.8829 1 12 18
1957313N11068 1957 80 NI AS NOT_NAMED 1957-11-10 00:00:00 TS 14.5640 67.1760 main 687 656 O________OP___ jtwc_io IO061957 14.6000 67.2000 -1 14.6000 67.2000 TC 35 14.4921 67.1279 1 10 27
1957313N11068 1957 80 NI AS NOT_NAMED 1957-11-10 03:00:00 TS 14.8833 67.3951 main 656 632 P________PO___ IO061957 14.8749 67.3927 -1 14.8749 67.3927 TC 35 14.9000 67.4000 2 6 41
1957313N11068 1957 80 NI AS NOT_NAMED 1957-11-10 06:00:00 TS 15.0361 67.6024 main 632 609 O________OP___ jtwc_io IO061957 15.0000 67.6000 -1 15.0000 67.6000 TC 35 15.1083 67.6071 2 5 58
1957313N11068 1957 80 NI AS NOT_NAMED 1957-11-10 09:00:00 TS 15.1508 67.8377 main 606 575 P________PP___ IO061957 15.1300 67.8425 -1 15.1300 67.8425 TC 35 15.1924 67.8282 2 5 71
1957313N11068 1957 80 NI AS NOT_NAMED 1957-11-10 12:00:00 TS 15.2017 68.0867 main 575 554 O________OP___ jtwc_io IO061957 15.2000 68.1000 -1 15.2000 68.1000 TC 35 15.2052 68.0601 2 5 84
1957313N11068 1957 80 NI AS NOT_NAMED 1957-11-10 15:00:00 TS 15.2050 68.3334 main 554 523 P________PO___ IO061957 15.2075 68.3501 -1 15.2075 68.3501 TC 35 15.2000 68.3000 3 5 89
1957313N11068 1957 80 NI AS NOT_NAMED 1957-11-10 18:00:00 TS 15.2096 68.5932 main 523 503 O________OP___ jtwc_io IO061957 15.2000 68.6000 -1 15.2000 68.6000 TC 35 15.2289 68.5795 3 5 86
1957313N11068 1957 80 NI AS NOT_NAMED 1957-11-10 21:00:00 TS 15.2368 68.8634 main 492 468 P________PP___ IO061957 15.2275 68.8650 -1 15.2275 68.8650 TC 50 15.2552 68.8601 3 5 79
1957313N11068 1957 80 NI AS NOT_NAMED 1957-11-11 00:00:00 TS 15.3013 69.1036 main 468 445 O________OP___ jtwc_io IO061957 15.3000 69.1000 -1 15.3000 69.1000 TC 65 15.3039 69.1107 3 5 67
1957313N11068 1957 80 NI AS NOT_NAMED 1957-11-11 03:00:00 TS 15.4133 69.2916 main 445 428 P________PO___ IO061957 15.4200 69.2875 -1 15.4200 69.2875 TC 50 15.4000 69.3000 4 4 44
1957313N11068 1957 80 NI AS NOT_NAMED 1957-11-11 06:00:00 TS 15.5942 69.3979 main 428 423 O________OP___ jtwc_io IO061957 15.6000 69.4000 -1 15.6000 69.4000 TC 35 15.5826 69.3938 4 4 16
1957313N11068 1957 80 NI AS NOT_NAMED 1957-11-11 09:00:00 TS 15.8324 69.4234 main 423 418 P________PP___ IO061957 15.8425 69.4226 -1 15.8425 69.4226 TC 35 15.8123 69.4251 4 5 0
1957313N11068 1957 80 NI AS NOT_NAMED 1957-11-11 12:00:00 TS 16.0869 69.4063 main 418 416 O________OP___ jtwc_io IO061957 16.1000 69.4000 -1 16.1000 69.4000 TC 35 16.0608 69.4189 4 5 357
1957313N11068 1957 80 NI AS NOT_NAMED 1957-11-11 15:00:00 TS 16.3100 69.4000 main 416 412 P________PO___ IO061957 16.3150 69.4000 -1 16.3150 69.4000 TC 35 16.3000 69.4000 2 4 357
1957313N11068 1957 80 NI AS NOT_NAMED 1957-11-11 18:00:00 TS 16.5031 69.3956 main 412 405 O________OP___ jtwc_io IO061957 16.5000 69.4000 -1 16.5000 69.4000 TC 35 16.5079 69.3890 2 4 359
1957313N11068 1957 80 NI AS NOT_NAMED 1957-11-11 21:00:00 TS 16.6704 69.3946 main 405 402 P________PP___ IO061957 16.6575 69.4000 -1 16.6575 69.4000 TC 35 16.6876 69.3874 2 3 3
1957313N11068 1957 80 NI AS NOT_NAMED 1957-11-12 00:00:00 TS 16.8242 69.3961 main 402 394 O________OP___ jtwc_io IO061957 16.8000 69.4000 -1 16.8000 69.4000 TC 35 16.8485 69.3921 2 3 0
1957313N11068 1957 80 NI AS NOT_NAMED 1957-11-12 03:00:00 NR 17.0000 69.4000 main 394 __________O___ IO061957 -1 TC 17.0000 69.4000 3 4 7

IBTrACS Databaseについて

本データベースは、米国NOAAが公開する1842年以降の世界の熱帯低気圧のベストトラックデータアーカイブInternational Best Track Archive for Climate Stewardship (IBTrACS)を、ウェブで閲覧しやすい形式に変換したものです。

最終更新日:2021-12-01